createdAt,value
2023-02-03T00:02:24.883Z,98754.72
2023-02-03T00:04:52.397Z,98756.84
2023-02-03T00:07:20.097Z,98753.03
2023-02-03T00:09:47.641Z,98761.59
2023-02-03T00:12:15.305Z,98749.66
2023-02-03T00:14:42.759Z,98756.38
2023-02-03T00:17:11.569Z,98757.94
2023-02-03T00:19:39.017Z,98757.34
2023-02-03T00:22:06.535Z,98755.41
2023-02-03T00:24:33.973Z,98760.06
2023-02-03T00:27:04.572Z,98759.22
2023-02-03T00:29:32.005Z,98758.09
2023-02-03T00:31:59.752Z,98764.38
2023-02-03T00:34:31.250Z,98761.25
2023-02-03T00:37:01.447Z,98759.88
2023-02-03T00:39:28.925Z,98753.44
2023-02-03T00:41:56.404Z,98756.22
2023-02-03T00:44:23.859Z,98753.16
2023-02-03T00:46:51.324Z,98756.16
2023-02-03T00:49:18.785Z,98754.03
2023-02-03T00:51:47.585Z,98758.66
2023-02-03T00:54:15.188Z,98758.94
2023-02-03T00:56:43.555Z,98754.28
2023-02-03T00:59:11.144Z,98745.91
2023-02-03T01:01:38.622Z,98747.72
2023-02-03T01:04:06.690Z,98745.59
2023-02-03T01:06:34.210Z,98751.19
2023-02-03T01:09:04.411Z,98759.63
2023-02-03T01:11:33.515Z,98753.16
2023-02-03T01:14:01.767Z,98753.03
2023-02-03T01:16:36.100Z,98760.91
2023-02-03T01:19:03.611Z,98747.31
2023-02-03T01:21:31.171Z,98754.19
2023-02-03T01:24:00.636Z,98747.59
2023-02-03T01:26:29.559Z,98756.84
2023-02-03T01:28:58.065Z,98747.16
2023-02-03T01:31:28.243Z,98762.72
2023-02-03T01:33:56.783Z,98749.09
2023-02-03T01:36:26.975Z,98753.31
2023-02-03T01:38:54.923Z,98743.94
2023-02-03T01:41:24.425Z,98745.34
2023-02-03T01:43:55.324Z,98739.88
2023-02-03T01:46:29.820Z,98738.66
2023-02-03T01:49:02.884Z,98741.84
2023-02-03T01:51:31.207Z,98737.38
2023-02-03T01:53:59.189Z,98735.41
2023-02-03T01:56:32.647Z,98720.59
2023-02-03T01:59:01.978Z,98714.88
2023-02-03T02:01:31.507Z,98709.00
2023-02-03T02:04:02.746Z,98702.69
2023-02-03T02:06:30.362Z,98695.53
2023-02-03T02:09:08.595Z,98697.22
2023-02-03T02:11:36.063Z,98690.50
2023-02-03T02:14:04.971Z,98675.97
2023-02-03T02:16:46.893Z,98673.44
2023-02-03T02:19:49.807Z,98686.03
2023-02-03T02:22:23.262Z,98687.16
2023-02-03T02:25:26.427Z,98674.72
2023-02-03T02:28:23.565Z,98678.22
2023-02-03T02:31:18.851Z,98694.00
2023-02-03T02:33:57.019Z,98686.47
2023-02-03T02:36:33.795Z,98680.31
2023-02-03T02:39:11.177Z,98692.34
2023-02-03T02:41:44.201Z,98698.50
2023-02-03T02:44:17.235Z,98699.63
2023-02-03T02:46:49.392Z,98691.66
2023-02-03T02:49:24.333Z,98691.66
2023-02-03T02:51:53.474Z,98692.50
2023-02-03T02:54:24.986Z,98685.63
2023-02-03T02:56:56.883Z,98692.22
2023-02-03T02:59:24.737Z,98680.59
2023-02-03T03:01:52.270Z,98676.97
2023-02-03T03:04:25.044Z,98683.50
2023-02-03T03:06:58.345Z,98688.97
2023-02-03T03:09:35.793Z,98688.28
2023-02-03T03:12:07.569Z,98692.47
2023-02-03T03:14:38.749Z,98697.09
2023-02-03T03:17:09.907Z,98692.63
2023-02-03T03:19:43.112Z,98702.97
2023-02-03T03:22:14.313Z,98696.13
2023-02-03T03:24:49.787Z,98694.72
2023-02-03T03:27:22.687Z,98689.13
2023-02-03T03:29:54.410Z,98687.03
2023-02-03T03:32:22.596Z,98687.03
2023-02-03T03:34:52.295Z,98696.56
2023-02-03T03:37:24.375Z,98701.03
2023-02-03T03:39:55.960Z,98707.19
2023-02-03T03:42:31.585Z,98697.53
2023-02-03T03:45:04.856Z,98708.84
2023-02-03T03:47:37.337Z,98716.28
2023-02-03T03:50:11.398Z,98711.94
2023-02-03T03:52:40.765Z,98714.03
2023-02-03T03:55:11.764Z,98713.19
2023-02-03T03:57:45.157Z,98702.28
2023-02-03T04:00:16.570Z,98705.94
2023-02-03T04:02:47.528Z,98708.03
2023-02-03T04:05:16.869Z,98707.47
2023-02-03T04:07:45.542Z,98695.97
2023-02-03T04:10:24.661Z,98691.38
2023-02-03T04:12:52.199Z,98687.88
2023-02-03T04:15:19.724Z,98694.28
2023-02-03T04:17:47.182Z,98677.50
2023-02-03T04:20:16.625Z,98680.16
2023-02-03T04:22:44.130Z,98670.91
2023-02-03T04:25:11.581Z,98673.75
2023-02-03T04:27:39.139Z,98665.06
2023-02-03T04:30:07.813Z,98675.13
2023-02-03T04:32:36.143Z,98666.03
2023-02-03T04:35:05.115Z,98675.44
2023-02-03T04:37:34.270Z,98666.03
2023-02-03T04:40:01.867Z,98663.09
2023-02-03T04:42:29.316Z,98662.13
2023-02-03T04:44:56.804Z,98655.41
2023-02-03T04:47:24.266Z,98664.22
2023-02-03T04:49:51.705Z,98653.44
2023-02-03T04:52:19.154Z,98651.50
2023-02-03T04:54:48.093Z,98651.88
2023-02-03T04:57:15.461Z,98651.50
2023-02-03T04:59:42.894Z,98659.06
2023-02-03T05:02:10.474Z,98667.88
2023-02-03T05:04:38.136Z,98654.56
2023-02-03T05:07:05.570Z,98675.69
2023-02-03T05:09:33.025Z,98671.38
2023-02-03T05:12:04.832Z,98660.56
2023-02-03T05:14:32.348Z,98645.75
2023-02-03T05:16:59.910Z,98658.06
2023-02-03T05:19:27.400Z,98667.59
2023-02-03T05:21:54.853Z,98664.22
2023-02-03T05:24:22.316Z,98677.38
2023-02-03T05:26:49.780Z,98686.31
2023-02-03T05:29:18.562Z,98683.09
2023-02-03T05:31:46.056Z,98687.31
2023-02-03T05:34:13.509Z,98679.47
2023-02-03T05:36:40.945Z,98682.00
2023-02-03T05:39:08.480Z,98675.84
2023-02-03T05:41:53.482Z,98679.47
2023-02-03T05:44:23.993Z,98678.75
2023-02-03T05:46:53.343Z,98695.72
2023-02-03T05:49:20.836Z,98685.22
2023-02-03T05:51:48.317Z,98675.69
2023-02-03T05:54:16.057Z,98672.19
2023-02-03T05:56:43.794Z,98670.09
2023-02-03T05:59:11.587Z,98666.47
2023-02-03T06:01:40.478Z,98672.19
2023-02-03T06:04:08.071Z,98668.13
2023-02-03T06:06:35.643Z,98660.03
2023-02-03T06:09:05.067Z,98632.16
2023-02-03T06:11:33.243Z,98621.81
2023-02-03T06:14:01.042Z,98635.25
2023-02-03T06:16:30.041Z,98618.88
2023-02-03T06:19:00.663Z,98623.38
2023-02-03T06:21:29.239Z,98619.28
2023-02-03T06:23:56.814Z,98625.16
2023-02-03T06:26:25.102Z,98626.59
2023-02-03T06:28:52.575Z,98626.44
2023-02-03T06:31:20.159Z,98630.63
2023-02-03T06:33:47.726Z,98620.56
2023-02-03T06:36:16.526Z,98614.56
2023-02-03T06:38:44.046Z,98616.94
2023-02-03T06:41:11.477Z,98626.72
2023-02-03T06:43:38.924Z,98615.25
2023-02-03T06:46:06.457Z,98617.78
2023-02-03T06:48:34.024Z,98619.16
2023-02-03T06:51:01.496Z,98614.94
2023-02-03T06:53:30.279Z,98618.88
2023-02-03T06:55:57.739Z,98621.81
2023-02-03T06:58:25.321Z,98615.66
2023-02-03T07:00:56.120Z,98624.78
2023-02-03T07:03:23.550Z,98613.00
2023-02-03T07:05:51.002Z,98612.88
2023-02-03T07:08:18.429Z,98612.88
2023-02-03T07:10:47.231Z,98619.00
2023-02-03T07:13:14.704Z,98613.56
2023-02-03T07:15:42.282Z,98610.06
2023-02-03T07:18:09.896Z,98622.38
2023-02-03T07:20:37.372Z,98602.94
2023-02-03T07:23:05.246Z,98606.72
2023-02-03T07:25:32.711Z,98634.53
2023-02-03T07:28:01.605Z,98649.41
2023-02-03T07:30:29.317Z,98633.16
2023-02-03T07:32:56.922Z,98645.72
2023-02-03T07:35:24.405Z,98646.72
2023-02-03T07:37:51.876Z,98648.56
2023-02-03T07:40:20.260Z,98634.53
2023-02-03T07:42:49.511Z,98653.03
2023-02-03T07:45:19.419Z,98649.53
2023-02-03T07:47:46.966Z,98648.13
2023-02-03T07:50:14.648Z,98637.91
2023-02-03T07:52:42.274Z,98639.59
2023-02-03T07:55:10.590Z,98641.00
2023-02-03T07:57:43.157Z,98656.22
2023-02-03T08:00:14.707Z,98667.28
2023-02-03T08:02:43.708Z,98664.34
2023-02-03T08:05:12.611Z,98651.34
2023-02-03T08:07:40.476Z,98637.88
2023-02-03T08:10:09.394Z,98643.06
2023-02-03T08:12:36.769Z,98650.22
2023-02-03T08:15:04.414Z,98649.38
2023-02-03T08:17:33.439Z,98656.38
2023-02-03T08:20:02.264Z,98650.06
2023-02-03T08:22:29.767Z,98654.41
2023-02-03T08:24:57.235Z,98643.50
2023-02-03T08:27:24.768Z,98647.69
2023-02-03T08:29:52.294Z,98634.81
2023-02-03T08:32:22.425Z,98645.31
2023-02-03T08:34:50.856Z,98652.31
2023-02-03T08:37:22.550Z,98650.34
2023-02-03T08:39:50.304Z,98633.25
2023-02-03T08:42:18.049Z,98646.41
2023-02-03T08:44:45.773Z,98637.59
2023-02-03T08:47:13.467Z,98652.44
2023-02-03T08:49:41.003Z,98637.88
2023-02-03T08:52:11.415Z,98635.22
2023-02-03T08:54:40.811Z,98660.81
2023-02-03T08:57:08.786Z,98652.69
2023-02-03T08:59:38.399Z,98643.03
2023-02-03T09:02:07.619Z,98631.41
2023-02-03T09:04:35.488Z,98641.63
2023-02-03T09:07:04.374Z,98633.50
2023-02-03T09:09:31.967Z,98629.72
2023-02-03T09:12:05.204Z,98633.94
2023-02-03T09:14:33.863Z,98632.81
2023-02-03T09:17:01.979Z,98619.91
2023-02-03T09:19:29.734Z,98624.25
2023-02-03T09:21:58.061Z,98628.56
2023-02-03T09:24:25.957Z,98621.16
2023-02-03T09:26:53.764Z,98624.34
2023-02-03T09:29:23.193Z,98614.00
2023-02-03T09:31:52.628Z,98605.69
2023-02-03T09:34:20.508Z,98607.38
2023-02-03T09:36:48.199Z,98596.16
2023-02-03T09:39:16.172Z,98594.19
2023-02-03T09:42:09.915Z,98590.16
2023-02-03T09:44:46.089Z,98567.72
2023-02-03T09:47:17.892Z,98562.78
2023-02-03T09:49:50.286Z,98589.78
2023-02-03T09:52:22.581Z,98596.00
2023-02-03T09:54:57.221Z,98572.53
2023-02-03T09:57:26.458Z,98582.59
2023-02-03T09:59:57.982Z,98570.47
2023-02-03T10:02:39.741Z,98578.97
2023-02-03T10:05:15.603Z,98579.53
2023-02-03T10:07:52.496Z,98557.47
2023-02-03T10:10:26.859Z,98565.47
2023-02-03T10:13:14.126Z,98550.44
2023-02-03T10:16:13.863Z,98562.06
2023-02-03T10:18:46.860Z,98550.88
2023-02-03T10:21:20.562Z,98552.34
2023-02-03T10:23:51.099Z,98561.19
2023-02-03T10:26:22.397Z,98544.88
2023-02-03T10:28:55.394Z,98565.53
2023-02-03T10:31:27.410Z,98554.16
2023-02-03T10:34:02.993Z,98553.59
2023-02-03T10:36:41.398Z,98537.50
2023-02-03T10:39:20.905Z,98531.66
2023-02-03T10:41:48.922Z,98533.47
2023-02-03T10:44:16.952Z,98540.03
2023-02-03T10:46:46.346Z,98531.28
2023-02-03T10:49:16.290Z,98546.34
2023-02-03T10:51:49.137Z,98527.63
2023-02-03T10:54:29.419Z,98535.16
2023-02-03T10:57:03.473Z,98543.50
2023-02-03T10:59:32.649Z,98546.00
2023-02-03T11:02:07.639Z,98547.38
2023-02-03T11:04:35.313Z,98549.59
2023-02-03T11:07:05.947Z,98534.31
2023-02-03T11:09:36.890Z,98537.56
2023-02-03T11:12:12.849Z,98527.34
2023-02-03T11:14:44.004Z,98518.84
2023-02-03T11:17:17.677Z,98514.75
2023-02-03T11:19:47.286Z,98507.91
2023-02-03T11:22:27.296Z,98493.03
2023-02-03T11:24:55.208Z,98490.38
2023-02-03T11:27:24.836Z,98484.31
2023-02-03T11:29:57.526Z,98477.59
2023-02-03T11:32:34.385Z,98461.19
2023-02-03T11:35:05.295Z,98466.50
2023-02-03T11:37:35.629Z,98464.00
2023-02-03T11:40:26.624Z,98465.66
2023-02-03T11:43:03.636Z,98472.53
2023-02-03T11:45:38.313Z,98470.31
2023-02-03T11:48:19.057Z,98477.16
2023-02-03T11:50:52.906Z,98465.66
2023-02-03T11:53:29.467Z,98459.03
2023-02-03T11:56:19.058Z,98460.72
2023-02-03T11:59:12.561Z,98459.22
2023-02-03T12:02:19.005Z,98452.88
2023-02-03T12:05:07.143Z,98446.88
2023-02-03T12:07:47.542Z,98442.47
2023-02-03T12:10:28.318Z,98447.72
2023-02-03T12:13:06.362Z,98432.28
2023-02-03T12:15:50.621Z,98437.22
2023-02-03T12:18:34.285Z,98439.41
2023-02-03T12:21:18.838Z,98438.75
2023-02-03T12:23:57.008Z,98435.31
2023-02-03T12:26:27.506Z,98431.13
2023-02-03T12:29:02.984Z,98425.97
2023-02-03T12:31:37.678Z,98431.44
2023-02-03T12:34:14.653Z,98431.44
2023-02-03T12:36:47.930Z,98425.25
2023-02-03T12:39:22.349Z,98422.47
2023-02-03T12:41:56.036Z,98422.47
2023-02-03T12:44:30.240Z,98424.41
2023-02-03T12:47:03.521Z,98402.44
2023-02-03T12:49:39.508Z,98393.94
2023-02-03T12:52:19.200Z,98390.75
2023-02-03T12:54:55.034Z,98390.88
2023-02-03T12:57:30.228Z,98403.66
2023-02-03T13:00:10.349Z,98399.84
2023-02-03T13:02:46.674Z,98390.03
2023-02-03T13:05:23.786Z,98382.06
2023-02-03T13:08:00.496Z,98375.75
2023-02-03T13:10:33.251Z,98395.22
2023-02-03T13:13:03.388Z,98386.22
2023-02-03T13:15:35.023Z,98401.22
2023-02-03T13:18:06.599Z,98400.91
2023-02-03T13:20:37.031Z,98392.56
2023-02-03T13:23:12.414Z,98397.25
2023-02-03T13:25:53.486Z,98403.28
2023-02-03T13:28:34.671Z,98387.75
2023-02-03T13:31:09.555Z,98372.63
2023-02-03T13:34:12.653Z,98389.13
2023-02-03T13:37:02.784Z,98375.66
2023-02-03T13:39:44.331Z,98361.66
2023-02-03T13:42:25.330Z,98350.88
2023-02-03T13:44:57.363Z,98345.03
2023-02-03T13:47:29.489Z,98329.91
2023-02-03T13:50:01.197Z,98338.06
2023-02-03T13:52:34.735Z,98317.91
2023-02-03T13:55:04.766Z,98309.31
2023-02-03T13:57:37.539Z,98329.06
2023-02-03T14:00:09.377Z,98336.41
2023-02-03T14:02:44.218Z,98333.59
2023-02-03T14:05:44.037Z,98357.84
2023-02-03T14:08:53.187Z,98363.81
2023-02-03T14:11:47.517Z,98358.16
2023-02-03T14:14:57.027Z,98363.81
2023-02-03T14:18:04.289Z,98372.56
2023-02-03T14:20:57.835Z,98364.72
2023-02-03T14:23:38.483Z,98358.09
2023-02-03T14:26:06.059Z,98344.25
2023-02-03T14:28:42.925Z,98355.75
2023-02-03T14:31:17.564Z,98338.09
2023-02-03T14:33:58.363Z,98327.28
2023-02-03T14:36:36.346Z,98339.75
2023-02-03T14:39:24.043Z,98334.59
2023-02-03T14:42:02.792Z,98319.13
2023-02-03T14:44:43.235Z,98324.78
2023-02-03T14:47:23.244Z,98335.28
2023-02-03T14:50:05.946Z,98346.91
2023-02-03T14:52:49.111Z,98335.56
2023-02-03T14:55:32.461Z,98334.59
2023-02-03T14:58:04.549Z,98353.22
2023-02-03T15:00:36.539Z,98349.56
2023-02-03T15:03:22.501Z,98354.06
2023-02-03T15:05:51.996Z,98338.22
2023-02-03T15:08:36.190Z,98349.88
2023-02-03T15:11:24.610Z,98331.91
2023-02-03T15:13:52.527Z,98338.41
2023-02-03T15:16:23.422Z,98348.06
2023-02-03T15:18:59.111Z,98370.19
2023-02-03T15:21:26.879Z,98373.84
2023-02-03T15:23:55.484Z,98364.03
2023-02-03T15:26:25.746Z,98346.53
2023-02-03T15:28:57.921Z,98346.53
2023-02-03T15:31:35.367Z,98354.53
2023-02-03T15:34:08.628Z,98357.19
2023-02-03T15:36:43.212Z,98372.03
2023-02-03T15:39:22.182Z,98354.53
2023-02-03T15:41:52.900Z,98370.34
2023-02-03T15:44:28.212Z,98385.16
2023-02-03T15:46:58.755Z,98396.28
2023-02-03T15:49:29.214Z,98398.78
2023-02-03T15:52:01.885Z,98391.97
2023-02-03T15:54:40.307Z,98409.59
2023-02-03T15:57:11.528Z,98377.34
2023-02-03T15:59:42.138Z,98373.16
2023-02-03T16:02:17.518Z,98398.09
2023-02-03T16:04:45.995Z,98396.13
2023-02-03T16:07:19.214Z,98384.66
2023-02-03T16:09:46.772Z,98376.44
2023-02-03T16:12:23.005Z,98377.94
2023-02-03T16:14:51.023Z,98376.00
2023-02-03T16:17:29.556Z,98371.78
2023-02-03T16:20:23.003Z,98373.16
2023-02-03T16:23:01.429Z,98378.78
2023-02-03T16:25:31.010Z,98398.94
2023-02-03T16:28:17.682Z,98392.78
2023-02-03T16:31:15.298Z,98388.59
2023-02-03T16:34:04.033Z,98398.94
2023-02-03T16:36:49.183Z,98384.78
2023-02-03T16:39:34.459Z,98385.16
2023-02-03T16:42:25.424Z,98364.19
2023-02-03T16:45:10.647Z,98387.16
2023-02-03T16:47:57.534Z,98393.16
2023-02-03T16:50:44.290Z,98405.34
2023-02-03T16:53:14.430Z,98392.72
2023-02-03T16:55:42.630Z,98382.44
2023-02-03T16:58:11.797Z,98387.06
2023-02-03T17:00:41.319Z,98397.03
2023-02-03T17:03:10.900Z,98381.22
2023-02-03T17:05:40.825Z,98367.75
2023-02-03T17:08:08.686Z,98368.16
2023-02-03T17:10:36.669Z,98355.28
2023-02-03T17:13:04.907Z,98358.47
2023-02-03T17:15:32.920Z,98352.31
2023-02-03T17:18:00.551Z,98361.97
2023-02-03T17:20:28.056Z,98362.66
2023-02-03T17:22:57.040Z,98371.47
2023-02-03T17:25:24.657Z,98382.66
2023-02-03T17:27:52.173Z,98387.97
2023-02-03T17:30:19.836Z,98397.25
2023-02-03T17:32:47.453Z,98406.16
2023-02-03T17:35:14.924Z,98395.28
2023-02-03T17:37:42.590Z,98400.44
2023-02-03T17:54:05.998Z,98388.16
2023-02-03T17:56:36.364Z,98415.59
2023-02-03T17:59:06.198Z,98412.13
2023-02-03T18:01:33.985Z,98415.59
2023-02-03T18:04:04.452Z,98420.91
2023-02-03T18:06:35.016Z,98410.25
2023-02-03T18:09:02.801Z,98418.25
2023-02-03T18:11:31.711Z,98415.59
2023-02-03T18:14:00.342Z,98420.38
2023-02-03T18:16:32.303Z,98408.91
2023-02-03T18:19:02.127Z,98406.78
2023-02-03T18:21:32.125Z,98418.56
2023-02-03T18:24:01.578Z,98400.75
2023-02-03T18:26:32.771Z,98404.41
2023-02-03T18:29:01.995Z,98408.75
2023-02-03T18:31:30.090Z,98396.28
2023-02-03T18:34:01.479Z,98399.78
2023-02-03T18:36:28.991Z,98421.94
2023-02-03T18:38:56.469Z,98403.28
2023-02-03T18:41:25.673Z,98421.22
2023-02-03T18:43:53.204Z,98413.63
2023-02-03T18:46:24.360Z,98423.28
2023-02-03T18:48:51.944Z,98439.63
2023-02-03T18:51:21.493Z,98437.81
2023-02-03T18:53:49.921Z,98445.97
2023-02-03T18:56:19.040Z,98439.03
2023-02-03T18:58:46.692Z,98430.53
2023-02-03T19:01:23.916Z,98444.50
2023-02-03T19:03:51.931Z,98442.16
2023-02-03T19:06:19.590Z,98441.38
2023-02-03T19:08:47.610Z,98447.56
2023-02-03T19:11:15.615Z,98457.44
2023-02-03T19:13:43.237Z,98452.97
2023-02-03T19:16:14.024Z,98462.47
2023-02-03T19:18:43.271Z,98463.31
2023-02-03T19:21:11.655Z,98478.97
2023-02-03T19:23:39.559Z,98485.06
2023-02-03T19:26:07.089Z,98464.91
2023-02-03T19:28:35.500Z,98481.41
2023-02-03T19:31:07.876Z,98478.75
2023-02-03T19:33:36.271Z,98472.13
2023-02-03T19:36:06.124Z,98478.31
2023-02-03T19:38:33.687Z,98484.31
2023-02-03T19:41:02.422Z,98485.06
2023-02-03T19:43:31.204Z,98495.22
2023-02-03T19:45:58.932Z,98498.81
2023-02-03T19:48:26.645Z,98526.72
2023-02-03T19:50:54.125Z,98519.28
2023-02-03T19:53:24.150Z,98521.66
2023-02-03T19:55:51.632Z,98538.38
2023-02-03T19:58:19.131Z,98515.69
2023-02-03T20:00:46.715Z,98539.59
2023-02-03T20:03:14.155Z,98546.09
2023-02-03T20:05:41.725Z,98553.25
2023-02-03T20:08:12.771Z,98566.84
2023-02-03T20:10:44.446Z,98557.59
2023-02-03T20:13:12.416Z,98568.53
2023-02-03T20:15:39.901Z,98553.78
2023-02-03T20:18:08.030Z,98554.66
2023-02-03T20:20:35.889Z,98554.09
2023-02-03T20:23:03.419Z,98556.44
2023-02-03T20:25:31.036Z,98570.28
2023-02-03T20:28:02.382Z,98570.84
2023-02-03T20:30:30.321Z,98592.47
2023-02-03T20:32:58.579Z,98594.09
2023-02-03T20:35:26.281Z,98608.22
2023-02-03T20:37:53.778Z,98595.75
2023-02-03T20:40:23.168Z,98617.22
2023-02-03T20:42:51.068Z,98615.50
2023-02-03T20:45:21.798Z,98626.56
2023-02-03T20:47:49.548Z,98620.28
2023-02-03T20:50:19.422Z,98623.38
2023-02-03T20:52:47.263Z,98631.66
2023-02-03T20:55:16.691Z,98636.28
2023-02-03T20:57:45.438Z,98636.00
2023-02-03T21:00:17.593Z,98634.63
2023-02-03T21:03:04.681Z,98635.47
2023-02-03T21:05:36.360Z,98642.75
2023-02-03T21:08:11.553Z,98641.72
2023-02-03T21:10:40.737Z,98645.66
2023-02-03T21:13:21.243Z,98641.06
2023-02-03T21:15:49.780Z,98651.72
2023-02-03T21:18:34.918Z,98650.88
2023-02-03T21:21:02.623Z,98650.34
2023-02-03T21:23:41.468Z,98651.91
2023-02-03T21:26:20.469Z,98648.00
2023-02-03T21:28:49.773Z,98650.78
2023-02-03T21:31:23.020Z,98663.56
2023-02-03T21:33:53.288Z,98677.31
2023-02-03T21:36:23.631Z,98651.19
2023-02-03T21:38:53.505Z,98652.91
2023-02-03T21:41:22.960Z,98649.88
2023-02-03T21:43:52.424Z,98657.06
2023-02-03T21:46:25.596Z,98660.44
2023-02-03T21:48:56.138Z,98660.28
2023-02-03T21:51:26.499Z,98666.13
2023-02-03T21:53:56.434Z,98661.81
2023-02-03T21:56:26.038Z,98667.59
2023-02-03T21:58:57.476Z,98670.50
2023-02-03T22:01:26.394Z,98674.03
2023-02-03T22:03:55.783Z,98679.63
2023-02-03T22:06:25.998Z,98682.44
2023-02-03T22:08:55.390Z,98678.56
2023-02-03T22:11:26.263Z,98681.78
2023-02-03T22:13:54.392Z,98697.50
2023-02-03T22:16:22.790Z,98684.75
2023-02-03T22:18:50.700Z,98689.97
2023-02-03T22:21:19.557Z,98685.59
2023-02-03T22:23:48.890Z,98681.56
2023-02-03T22:26:17.200Z,98669.94
2023-02-03T22:28:45.377Z,98698.63
2023-02-03T22:31:14.066Z,98688.41
2023-02-03T22:33:44.912Z,98684.75
2023-02-03T22:36:14.156Z,98684.66
2023-02-03T22:38:43.495Z,98697.97
2023-02-03T22:41:12.855Z,98692.94
2023-02-03T22:43:41.077Z,98688.16
2023-02-03T22:46:09.387Z,98685.69
2023-02-03T22:48:36.918Z,98690.16
2023-02-03T22:51:04.901Z,98684.84
2023-02-03T22:53:34.681Z,98686.66
2023-02-03T22:56:03.681Z,98699.84
2023-02-03T22:58:31.119Z,98699.53
2023-02-03T23:00:58.583Z,98697.47
2023-02-03T23:03:26.111Z,98698.16
2023-02-03T23:05:53.690Z,98696.19
2023-02-03T23:08:21.148Z,98700.13
2023-02-03T23:10:48.636Z,98687.38
2023-02-03T23:13:17.519Z,98694.69
2023-02-03T23:15:44.832Z,98700.13
2023-02-03T23:18:12.281Z,98699.75
2023-02-03T23:20:39.718Z,98701.28
2023-02-03T23:23:07.185Z,98703.50
2023-02-03T23:25:34.652Z,98701.28
2023-02-03T23:28:02.159Z,98711.22
2023-02-03T23:30:31.324Z,98697.78
2023-02-03T23:32:58.934Z,98708.69
2023-02-03T23:35:43.989Z,98705.34
2023-02-03T23:38:11.648Z,98707.84
2023-02-03T23:40:39.103Z,98706.88
2023-02-03T23:43:06.561Z,98712.22
2023-02-03T23:45:35.344Z,98716.00
2023-02-03T23:48:02.850Z,98721.19
2023-02-03T23:50:30.766Z,98736.72
2023-02-03T23:52:58.568Z,98727.47
2023-02-03T23:55:26.068Z,98734.78
2023-02-03T23:57:53.545Z,98725.41
